Flight Track Log - Related Links

Times and Time Zones

All times are in EDT time to prevent confusion due to time zone crossing. See the SKW5303 flight status page for this flight to view local times or setup timezone preferences in your user account.

Time Position Orientation Groundspeed Altitude Reporting Facility
EDT Latitude Longitude Course Direction KTS MPH feet Rate Location/Type
Mon 06:41:00 PM 37.6842 -122.5518 122° Southeast  Level FlightAware Approximate
Mon 06:42:00 PM 37.6500 -122.4511 90° East  Level FlightAware Approximate
Mon 06:43:00 PM 37.6240 -122.3557 50° Northeast  Level FlightAware Approximate
Mon 06:44:00 PM 37.6806 -122.2709 50° Northeast  Level FlightAware Approximate
Mon 06:45:00 PM 37.7180 -122.1767 76° East  Level FlightAware Approximate
Mon 06:46:00 PM 37.7386 -122.0687 78° East  Level FlightAware Approximate
Mon 06:47:00 PM 37.7626 -121.9623 67° East  Level FlightAware Approximate
Mon 06:48:00 PM 37.7815 -121.8540 79° East  Level FlightAware Approximate
Mon 06:49:00 PM 37.7982 -121.7449 79° East  Level FlightAware Approximate
Mon 06:50:00 PM 37.8055 -121.6344 82° East  Level FlightAware Approximate
Mon 06:51:00 PM 37.8167 -121.5242 90° East  Level FlightAware Approximate
Mon 06:52:00 PM 37.8167 -121.4129 90° East  Level FlightAware Approximate
Mon 06:53:00 PM 37.8183 -121.3019 82° East  Level FlightAware Approximate
Mon 06:54:00 PM 37.8306 -121.1917 82° East  Level FlightAware Approximate
Mon 06:55:00 PM 37.8359 -121.0808 86° East  Level FlightAware Approximate
Mon 06:56:00 PM 37.8413 -120.9698 86° East  Level FlightAware Approximate
Mon 06:57:00 PM 37.8465 -120.8587 87° East  Level FlightAware Approximate
Mon 06:58:00 PM 37.8299 -120.7582 135° Southeast  Level FlightAware Approximate
Mon 06:59:00 PM 37.7651 -120.6836 144° Southeast  Level FlightAware Approximate
Mon 07:00:00 PM 37.6936 -120.6191 145° Southeast  Level FlightAware Approximate
Mon 07:01:00 PM 37.6220 -120.5548 145° Southeast  Level FlightAware Approximate
Mon 07:02:00 PM 37.5589 -120.4778 135° Southeast  Level FlightAware Approximate
Mon 07:03:00 PM 37.4910 -120.4076 142° Southeast  Level FlightAware Approximate
Mon 07:04:00 PM 37.4190 -120.3500 180° South  Level FlightAware Approximate
Mon 07:05:00 PM 37.3540 -120.2768 137° Southeast  Level FlightAware Approximate
Mon 07:06:00 PM 37.2859 -120.2076 146° Southeast  Level FlightAware Approximate
Mon 07:07:00 PM 37.2129 -120.1462 141° Southeast  Level FlightAware Approximate
Mon 07:08:00 PM 37.1490 -120.0709 133° Southeast  Level FlightAware Approximate
Mon 07:09:00 PM 37.0792 -120.0049 146° Southeast  Level FlightAware Approximate
Mon 07:10:00 PM 37.0077 -119.9410 141° Southeast  Level FlightAware Approximate
Mon 07:11:00 PM 36.9412 -119.8694 136° Southeast  Level FlightAware Approximate
Mon 07:12:00 PM 36.8759 -119.7975 165° South  Level FlightAware Approximate
Mon 07:13:00 PM 36.7927 -119.7630 158° South  Level FlightAware Approximate
Mon 07:14:00 PM 36.7111 -119.7222 158° South  Level FlightAware Approximate
Mon 07:15:00 PM 36.6296 -119.6814 158° South  Level FlightAware Approximate
Mon 07:16:00 PM 36.5516 -119.6327 156° South  Level FlightAware Approximate
Mon 07:17:00 PM 36.4712 -119.5888 156° South  Level FlightAware Approximate
Mon 07:18:00 PM 36.3899 -119.5500 180° South  Level FlightAware Approximate
Mon 07:19:00 PM 36.3113 -119.5085 149° Southeast  Level FlightAware Approximate
Mon 07:20:00 PM 36.2297 -119.4687 160° South  Level FlightAware Approximate
Mon 07:21:00 PM 36.1469 -119.4333 180° South  Level FlightAware Approximate
Mon 07:22:00 PM 36.0671 -119.3919 158° South  Level FlightAware Approximate
Mon 07:23:00 PM 35.9856 -119.3511 158° South  Level FlightAware Approximate
Mon 07:24:00 PM 35.9065 -119.3039 154° Southeast  Level FlightAware Approximate
Mon 07:25:00 PM 35.8233 -119.2693 162° South  Level FlightAware Approximate
Mon 07:26:00 PM 35.7430 -119.2258 154° Southeast  Level FlightAware Approximate
Mon 07:27:00 PM 35.6629 -119.1814 158° South  Level FlightAware Approximate
Mon 07:28:00 PM 35.5829 -119.1415 169° South  Level FlightAware Approximate
Mon 07:29:00 PM 35.5036 -119.0985 149° Southeast  Level FlightAware Approximate
Mon 07:30:00 PM 35.4333 -119.0500 151° Southeast  Level FlightAware Approximate
Mon 07:31:00 PM 35.4339 -119.0577 151° Southeast  Level Estimated
Mon 07:32:00 PM 35.4333 -119.0500 151° Southeast  Level FlightAware Approximate
Mon 07:33:00 PM 35.4339 -119.0577 151° Southeast  Level Estimated
Mon 07:34:00 PM 35.4333 -119.0500 151° Southeast  Level FlightAware Approximate
Mon 07:35:00 PM 35.4339 -119.0577 151° Southeast  Level Estimated
Mon 07:36:00 PM 35.4333 -119.0500 151° Southeast  Level FlightAware Approximate
Mon 07:37:00 PM 35.4339 -119.0577 151° Southeast  Level Estimated
Mon 07:38:00 PM 35.4333 -119.0500 151° Southeast  Level FlightAware Approximate
Mon 07:39:00 PM 35.4339 -119.0577 151° Southeast  Level Estimated
Mon 07:40:00 PM 35.4333 -119.0500 151° Southeast  Level FlightAware Approximate
Mon 07:41:00 PM 35.4339 -119.0577 151° Southeast  Level Estimated
Mon 07:42:00 PM 35.4333 -119.0500 151° Southeast  Level FlightAware Approximate

Login

Don't have an account? Register now (free) for customized features, flight alerts, and more!